Airfield :
LOGIN :

Register | Disclaimer

   EN    FR    IT 

 










Legend :    VFR   Marginal VFR   IFR   Intensive IFR   Very Intensive IFR
Visi :
Ceiling :
>= 8 km
>= 3000ft
5 to 8 km
1000 to 3000 ft
1500m to 5 km
500 to 1000 ft
800 to 1500m
200 to 500 ft
< 800m
< 200 ft
Symbols :   Thunderstorms  Fog  Heavy snow  Heavy precipitations  Wind > 20 kt
SIGMETs :     Misc.  Thunderstorms  Icing  Turbulence  Mountain Waves  Volcanic Ashes






- Airport Elevation : 45 ft
- IATA code : CEG


EGNR - Hawarden Chester

CURRENT METAR :
  • 051850Z 24020G31KT 9999 FEW024 SCT036 13/08 Q1005

EXPIRED METARs :
  • 051820Z 23022G37KT 9999 FEW024 SCT036 12/08 Q1006
  • 051750Z 23017G29KT 9999 FEW024 SCT036 12/08 Q1007
  • 051720Z 23024G37KT 9999 FEW011 SCT024 12/08 Q1007
  • 051650Z 23025G37KT 9999 FEW012 SCT023 11/07 Q1007
  • 051620Z 22025G36KT 9999 FEW012 SCT023 11/07 Q1007

TAF AMD TAF EGNR
Valid from the 05 at 19:00 until the 05 at 21:00 UTC


051911Z 0519/0521 24020G30KT 9999 SCT020
TEMPO 0519/0521 24025G40KT 9000 -RA BKN014
PROB30
TEMPO 0519/0521 RA BKN009



MET'MAP, your aeronautical weather chart ! - Copyright ORBIFLY December 2007 - Disclaimer

ORBIFLY MET'MAP TEAM :

Programming & Development : Alexandra Zaïnal
Concept & original design : Baudouin d'Aumeries
Assistance for programming : Marc-Olivier Méhu
Technical & hardware support : Manuel Goepfert

Contact : metmap@orbifly.com




SOURCES & CREDITS :

   NOAA